Time;durP1;ratioP1;P1;durP2;ratioP2;P2;SDS_P1;SDS_P2;PMS_P1;PMS_P2;Temp;Humidity;BMP_temperature;BMP_pressure;BME280_temperature;BME280_humidity;BME280_pressure;Samples;Min_cycle;Max_cycle;Signal;HPM_P1;HPM_P2
2022/08/06 00:02:18;;;;;;;4.67;1.70;;;15.90;99.90;;;;;;4976086;28;20472;-83
2022/08/06 00:04:43;;;;;;;4.03;1.53;;;15.90;99.90;;;;;;4978093;28;20554;-82
2022/08/06 00:07:09;;;;;;;3.40;1.73;;;15.80;99.90;;;;;;4956857;28;20533;-82
2022/08/06 00:09:34;;;;;;;4.50;1.97;;;15.80;99.90;;;;;;4975622;28;20213;-83
2022/08/06 00:12:01;;;;;;;5.17;2.10;;;15.70;99.90;;;;;;4980494;28;20194;-82
2022/08/06 00:14:27;;;;;;;3.97;1.73;;;15.70;99.90;;;;;;4959173;28;20193;-83
2022/08/06 00:16:53;;;;;;;4.60;1.70;;;15.70;99.90;;;;;;4973560;28;20452;-82
2022/08/06 00:19:18;;;;;;;6.10;1.97;;;15.60;99.90;;;;;;4963357;28;20453;-84
2022/08/06 00:21:44;;;;;;;5.43;2.27;;;15.60;99.90;;;;;;4977102;28;20190;-84
2022/08/06 00:24:10;;;;;;;3.60;1.73;;;15.60;99.90;;;;;;4983135;28;20195;-83
2022/08/06 00:26:37;;;;;;;9.20;2.50;;;15.60;99.90;;;;;;4973375;28;20194;-83
2022/08/06 00:29:03;;;;;;;6.23;1.90;;;15.60;99.90;;;;;;4963940;28;20242;-82
2022/08/06 00:31:29;;;;;;;2.67;1.60;;;15.50;99.90;;;;;;4973843;28;20442;-81
2022/08/06 00:33:55;;;;;;;6.13;2.30;;;15.50;99.90;;;;;;4976158;28;20452;-83
2022/08/06 00:36:22;;;;;;;6.87;2.37;;;15.50;99.90;;;;;;4974815;28;20187;-82
2022/08/06 00:41:14;;;;;;;3.13;1.90;;;15.40;99.90;;;;;;5025385;23;20509;-85
2022/08/06 00:43:41;;;;;;;5.00;2.27;;;15.40;99.90;;;;;;5009622;28;20201;-86
2022/08/06 00:46:07;;;;;;;4.87;2.30;;;15.40;99.90;;;;;;5011061;28;20438;-86
2022/08/06 00:48:33;;;;;;;9.50;2.30;;;15.40;99.90;;;;;;5008349;28;20944;-86
2022/08/06 00:50:58;;;;;;;5.20;1.93;;;15.40;99.90;;;;;;5008438;28;20292;-85
2022/08/06 00:53:24;;;;;;;5.10;1.97;;;15.40;99.90;;;;;;5006858;28;20568;-86
2022/08/06 00:55:49;;;;;;;4.60;2.33;;;15.40;99.90;;;;;;5008079;28;20274;-86
2022/08/06 00:58:15;;;;;;;3.03;1.50;;;15.40;99.90;;;;;;5005058;28;20206;-86
2022/08/06 01:00:41;;;;;;;4.47;2.00;;;15.30;99.90;;;;;;5005220;28;20343;-86
2022/08/06 01:03:07;;;;;;;7.47;2.60;;;15.30;99.90;;;;;;5010676;28;20282;-86
2022/08/06 01:05:32;;;;;;;6.83;2.37;;;15.30;99.90;;;;;;5007751;28;20510;-86
2022/08/06 01:07:58;;;;;;;4.63;2.40;;;15.30;99.90;;;;;;5008162;28;20927;-86
2022/08/06 01:10:24;;;;;;;7.23;2.53;;;15.20;99.90;;;;;;5007101;28;20213;-86
2022/08/06 01:12:49;;;;;;;9.00;2.57;;;15.20;99.90;;;;;;5005492;28;20270;-86
2022/08/06 01:15:15;;;;;;;8.93;2.20;;;15.20;99.90;;;;;;5006716;28;20186;-86
2022/08/06 01:18:00;;;;;;;6.27;2.10;;;15.10;99.90;;;;;;5002744;28;20284;-86
2022/08/06 01:20:54;;;;;;;5.83;2.27;;;15.10;99.90;;;;;;5002140;28;20259;-88
2022/08/06 01:23:38;;;;;;;4.10;2.67;;;15.10;99.90;;;;;;5006974;28;20440;-86
2022/08/06 01:26:43;;;;;;;6.63;2.10;;;15.10;99.90;;;;;;5007877;28;20918;-86
2022/08/06 01:29:21;;;;;;;8.13;2.20;;;15.10;99.90;;;;;;5006128;28;20490;-87
2022/08/06 01:31:55;;;;;;;5.40;2.57;;;15.00;99.90;;;;;;5005903;28;20440;-86
2022/08/06 01:34:31;;;;;;;6.37;2.50;;;15.00;99.90;;;;;;5009363;28;20531;-86
2022/08/06 01:37:20;;;;;;;5.33;3.20;;;15.00;99.90;;;;;;5002587;28;20437;-85
2022/08/06 01:39:50;;;;;;;4.53;2.70;;;14.90;99.90;;;;;;4992154;28;20478;-86
2022/08/06 01:42:18;;;;;;;5.43;2.03;;;14.90;99.90;;;;;;5006653;28;20466;-86
2022/08/06 01:44:48;;;;;;;10.67;2.43;;;14.90;99.90;;;;;;5007859;28;20461;-87
2022/08/06 01:47:18;;;;;;;5.27;2.20;;;14.80;99.90;;;;;;5007090;28;20895;-86
2022/08/06 01:49:50;;;;;;;4.30;3.00;;;14.80;99.90;;;;;;5009008;28;20459;-86
2022/08/06 01:52:17;;;;;;;10.37;2.47;;;14.80;99.90;;;;;;5003269;28;20441;-86
2022/08/06 01:54:47;;;;;;;5.43;2.47;;;14.80;99.90;;;;;;5008047;28;20442;-86
2022/08/06 01:57:17;;;;;;;6.57;2.50;;;14.80;1.00;;;;;;5012716;28;20471;-85
2022/08/06 01:59:47;;;;;;;6.43;2.63;;;14.70;1.00;;;;;;5008453;28;20503;-86
2022/08/06 02:02:19;;;;;;;6.37;3.50;;;14.70;1.00;;;;;;5007880;28;20981;-86
2022/08/06 02:04:47;;;;;;;4.97;2.40;;;14.70;1.00;;;;;;5011083;28;20473;-86
2022/08/06 02:07:16;;;;;;;5.13;2.47;;;14.60;1.00;;;;;;5009762;28;20869;-86
2022/08/06 02:09:44;;;;;;;8.87;3.20;;;14.60;1.00;;;;;;5002915;28;20465;-85
2022/08/06 02:12:12;;;;;;;7.13;2.97;;;14.50;1.00;;;;;;5003446;28;20448;-87
2022/08/06 02:14:44;;;;;;;5.97;3.30;;;14.50;1.00;;;;;;5005404;28;20431;-85
2022/08/06 02:17:12;;;;;;;5.40;3.00;;;14.50;1.00;;;;;;5001263;28;21013;-86
2022/08/06 02:19:42;;;;;;;9.07;2.93;;;14.40;1.00;;;;;;5010597;28;20593;-85
2022/08/06 02:22:08;;;;;;;5.03;2.70;;;14.40;1.00;;;;;;5006809;28;20439;-86
2022/08/06 02:24:35;;;;;;;6.80;2.97;;;14.30;1.00;;;;;;5005637;28;20812;-86
2022/08/06 02:27:02;;;;;;;8.70;3.60;;;14.30;1.00;;;;;;5007594;28;20442;-85
2022/08/06 02:29:29;;;;;;;5.00;2.83;;;14.20;1.00;;;;;;5000867;28;20926;-85
2022/08/06 02:31:55;;;;;;;5.43;3.07;;;14.20;1.00;;;;;;5007057;28;20441;-86
2022/08/06 02:34:21;;;;;;;6.23;3.30;;;14.20;1.00;;;;;;5006815;28;20434;-86
2022/08/06 02:36:57;;;;;;;7.33;3.43;;;14.10;1.00;;;;;;4997753;28;20675;-86
2022/08/06 02:39:27;;;;;;;9.03;3.50;;;14.10;1.00;;;;;;5005526;28;20836;-86
2022/08/06 02:42:08;;;;;;;7.27;3.53;;;14.10;1.00;;;;;;5000660;28;20502;-86
2022/08/06 02:44:48;;;;;;;10.47;3.53;;;14.00;1.00;;;;;;5010396;28;20573;-87
2022/08/06 02:47:22;;;;;;;6.67;3.83;;;14.00;23.00;;;;;;5006166;28;20425;-86
2022/08/06 02:49:51;;;;;;;5.90;3.70;;;14.00;35.90;;;;;;5005728;28;20962;-89
2022/08/06 02:52:24;;;;;;;7.70;3.87;;;14.00;58.80;;;;;;5008851;28;20458;-85
2022/08/06 02:54:59;;;;;;;5.07;3.63;;;14.00;91.20;;;;;;5005492;28;20437;-85
2022/08/06 02:57:32;;;;;;;7.07;3.60;;;14.00;99.90;;;;;;5009595;28;20834;-86
2022/08/06 03:00:04;;;;;;;6.77;4.07;;;14.00;99.90;;;;;;5004830;28;20501;-86
2022/08/06 03:02:32;;;;;;;11.23;4.10;;;14.00;99.90;;;;;;5008076;28;20810;-86
2022/08/06 03:05:01;;;;;;;5.93;2.97;;;13.90;99.90;;;;;;5000272;28;20462;-86
2022/08/06 03:07:29;;;;;;;7.00;4.20;;;13.90;99.90;;;;;;5005178;28;20513;-86
2022/08/06 03:09:57;;;;;;;7.10;3.43;;;13.90;99.90;;;;;;5004330;28;20978;-86
2022/08/06 03:12:24;;;;;;;5.37;4.07;;;13.90;99.90;;;;;;5013639;28;20445;-86
2022/08/06 03:14:52;;;;;;;6.40;3.70;;;13.90;99.90;;;;;;5005764;28;20443;-86
2022/08/06 03:17:20;;;;;;;6.13;3.67;;;13.90;99.90;;;;;;5007546;28;20476;-86
2022/08/06 03:19:47;;;;;;;7.63;4.20;;;13.90;99.90;;;;;;5008710;28;20918;-85
2022/08/06 03:22:15;;;;;;;7.30;3.67;;;13.90;99.90;;;;;;4999264;28;20524;-86
2022/08/06 03:24:44;;;;;;;10.80;4.03;;;13.90;99.90;;;;;;5005810;28;20473;-86
2022/08/06 03:27:12;;;;;;;8.20;3.90;;;13.90;99.90;;;;;;5004758;28;21024;-86
2022/08/06 03:29:40;;;;;;;6.40;3.37;;;13.90;99.90;;;;;;5004771;28;20453;-86
2022/08/06 03:32:08;;;;;;;3.83;3.43;;;13.90;99.90;;;;;;5010621;28;20429;-87
2022/08/06 03:34:35;;;;;;;4.80;3.87;;;13.80;99.90;;;;;;5006979;28;21021;-86
2022/08/06 03:37:03;;;;;;;6.97;4.00;;;13.80;99.90;;;;;;5008857;28;20431;-85
2022/08/06 03:39:32;;;;;;;6.90;4.37;;;13.80;99.90;;;;;;5008134;28;20543;-85
2022/08/06 03:41:58;;;;;;;5.00;3.67;;;13.80;99.90;;;;;;5013849;28;20557;-87
2022/08/06 03:44:23;;;;;;;8.00;3.73;;;13.80;99.90;;;;;;5011156;28;20437;-86
2022/08/06 03:46:58;;;;;;;8.43;3.57;;;13.80;1.00;;;;;;5009752;28;20457;-87
2022/08/06 03:49:28;;;;;;;6.13;3.97;;;13.80;1.00;;;;;;5010334;28;20251;-85
2022/08/06 03:51:56;;;;;;;5.70;4.20;;;13.70;1.00;;;;;;5011332;28;20445;-86
2022/08/06 03:54:26;;;;;;;4.80;3.50;;;13.70;1.00;;;;;;5008641;28;20930;-86
2022/08/06 03:56:56;;;;;;;7.43;4.30;;;13.60;1.00;;;;;;5009372;28;20429;-86
2022/08/06 03:59:25;;;;;;;6.87;3.93;;;13.70;1.00;;;;;;5023321;28;20464;-86
2022/08/06 04:01:51;;;;;;;6.13;3.63;;;13.70;1.00;;;;;;5008847;28;20441;-86
2022/08/06 04:04:19;;;;;;;8.83;4.43;;;13.70;1.00;;;;;;5008598;28;21112;-86
2022/08/06 04:06:45;;;;;;;10.60;3.77;;;13.60;1.00;;;;;;5005192;28;20179;-84
2022/08/06 04:09:12;;;;;;;5.40;3.70;;;13.70;53.00;;;;;;5008264;28;20543;-86
2022/08/06 04:11:38;;;;;;;6.30;3.97;;;13.60;34.60;;;;;;5012898;28;20438;-86
2022/08/06 04:14:04;;;;;;;4.50;3.20;;;13.70;59.00;;;;;;5010283;28;20440;-86
2022/08/06 04:16:31;;;;;;;11.30;3.47;;;13.70;9.00;;;;;;5011983;28;20277;-87
2022/08/06 04:18:57;;;;;;;7.93;3.70;;;13.70;28.00;;;;;;5011480;28;20480;-86
2022/08/06 04:21:24;;;;;;;7.50;3.80;;;13.70;33.40;;;;;;5008273;28;20458;-87
2022/08/06 04:23:51;;;;;;;10.40;4.20;;;13.80;17.10;;;;;;5006317;28;20505;-87
2022/08/06 04:26:22;;;;;;;7.20;4.10;;;13.80;28.90;;;;;;5016111;28;20917;-86
2022/08/06 04:28:51;;;;;;;5.50;3.50;;;13.80;21.00;;;;;;5006631;28;20485;-85
2022/08/06 04:31:19;;;;;;;10.93;4.47;;;13.90;1.00;;;;;;5011544;28;20448;-87
2022/08/06 04:33:45;;;;;;;8.40;3.90;;;13.90;1.00;;;;;;5008526;28;20589;-85
2022/08/06 04:36:12;;;;;;;7.73;3.87;;;14.00;1.00;;;;;;5008199;28;20438;-85
2022/08/06 04:38:39;;;;;;;6.60;3.70;;;14.00;1.00;;;;;;5007934;28;20471;-86
2022/08/06 04:41:05;;;;;;;13.87;4.17;;;14.10;1.00;;;;;;5011745;28;20477;-86
2022/08/06 04:43:32;;;;;;;10.13;4.53;;;14.20;1.00;;;;;;5006492;28;20481;-86
2022/08/06 04:45:58;;;;;;;4.00;3.57;;;14.20;1.00;;;;;;5007125;28;20441;-86
2022/08/06 04:48:24;;;;;;;7.73;4.03;;;14.30;1.00;;;;;;5008907;28;20430;-86
2022/08/06 04:50:50;;;;;;;6.20;3.57;;;14.30;1.00;;;;;;5009089;28;20472;-86
2022/08/06 04:53:18;;;;;;;8.13;4.17;;;14.40;1.00;;;;;;5011821;28;20436;-86
2022/08/06 04:55:45;;;;;;;7.23;4.07;;;14.40;1.00;;;;;;5012071;28;20187;-86
2022/08/06 04:58:13;;;;;;;6.10;3.87;;;14.50;1.00;;;;;;5014461;28;20471;-87
2022/08/06 05:00:44;;;;;;;10.47;4.17;;;14.50;1.00;;;;;;5009372;28;20462;-86
2022/08/06 05:03:10;;;;;;;10.43;3.83;;;14.60;1.00;;;;;;5005136;28;20443;-87
2022/08/06 05:05:47;;;;;;;12.50;4.40;;;14.60;1.00;;;;;;5015302;28;20443;-87
2022/08/06 05:08:14;;;;;;;8.67;4.33;;;14.70;1.00;;;;;;5009259;28;20435;-86
2022/08/06 05:10:48;;;;;;;10.30;6.37;;;14.80;99.90;;;;;;5023113;28;20455;-86
2022/08/06 05:13:15;;;;;;;7.90;3.80;;;14.90;99.90;;;;;;5007856;28;20443;-85
2022/08/06 05:15:44;;;;;;;6.40;4.50;;;15.00;99.90;;;;;;5005201;28;20774;-86
2022/08/06 05:18:17;;;;;;;7.87;5.20;;;15.10;99.90;;;;;;5006457;28;20838;-86
2022/08/06 05:20:49;;;;;;;13.20;4.33;;;15.20;99.90;;;;;;5016489;28;20452;-86
2022/08/06 05:23:21;;;;;;;6.80;4.40;;;15.30;99.90;;;;;;5008839;28;20800;-86
2022/08/06 05:25:49;;;;;;;5.80;4.13;;;15.50;99.90;;;;;;5004885;28;20533;-85
2022/08/06 05:28:14;;;;;;;12.43;5.40;;;15.70;99.90;;;;;;5006706;28;20440;-85
2022/08/06 05:30:49;;;;;;;8.60;4.07;;;15.80;58.60;;;;;;5011224;28;20452;-85
2022/08/06 05:33:32;;;;;;;9.30;5.70;;;16.00;1.00;;;;;;5004491;28;20193;-86
2022/08/06 05:36:01;;;;;;;14.20;6.03;;;16.20;1.00;;;;;;5007746;28;20476;-86
2022/08/06 05:38:27;;;;;;;33.13;6.93;;;16.40;1.00;;;;;;5010009;28;20841;-85
2022/08/06 05:40:55;;;;;;;12.77;7.70;;;16.70;1.00;;;;;;5008311;28;20475;-85
2022/08/06 05:43:21;;;;;;;18.00;13.43;;;17.30;1.00;;;;;;5014854;28;20989;-86
2022/08/06 05:45:49;;;;;;;16.23;11.13;;;18.80;1.00;;;;;;5007355;28;20456;-85
2022/08/06 05:48:17;;;;;;;16.73;12.50;;;22.90;99.90;;;;;;5010016;28;20437;-89
2022/08/06 05:50:59;;;;;;;10.07;8.33;;;26.90;99.90;;;;;;5011057;28;20508;-86
2022/08/06 05:53:40;;;;;;;7.67;5.80;;;30.50;99.90;;;;;;5009678;28;20434;-86
2022/08/06 05:56:15;;;;;;;7.10;4.03;;;33.30;99.90;;;;;;5014397;28;20801;-89
2022/08/06 05:58:55;;;;;;;3.90;2.83;;;35.80;99.90;;;;;;5003524;28;20477;-86
2022/08/06 06:01:23;;;;;;;6.10;3.17;;;37.80;99.90;;;;;;5014204;28;20445;-88
2022/08/06 06:03:50;;;;;;;4.60;2.40;;;39.50;99.90;;;;;;5007293;28;20426;-86
2022/08/06 06:06:16;;;;;;;3.80;2.23;;;40.60;99.90;;;;;;5006121;28;21033;-86
2022/08/06 06:08:42;;;;;;;8.70;3.20;;;41.70;99.90;;;;;;5001827;28;20451;-87
2022/08/06 06:11:09;;;;;;;5.93;2.10;;;42.90;98.30;;;;;;5006177;28;20977;-86
2022/08/06 06:13:35;;;;;;;4.77;2.40;;;;;;;;;;5008384;28;20181;-86
2022/08/06 06:16:26;;;;;;;4.20;1.97;;;44.90;63.00;;;;;;5008095;28;20525;-87
2022/08/06 06:19:14;;;;;;;8.33;2.47;;;46.10;66.40;;;;;;5006417;28;20469;-86
2022/08/06 06:21:58;;;;;;;4.47;2.43;;;47.90;57.40;;;;;;5006933;28;21032;-86
2022/08/06 06:24:49;;;;;;;4.83;2.43;;;49.60;51.60;;;;;;5008177;28;20426;-86
2022/08/06 06:27:27;;;;;;;5.50;2.33;;;51.50;47.00;;;;;;4998407;28;20444;-88
2022/08/06 06:30:01;;;;;;;4.80;1.80;;;52.90;54.20;;;;;;5006298;28;20305;-90
2022/08/06 06:32:29;;;;;;;6.68;1.83;;;54.20;36.00;;;;;;5003023;28;20640;-87
2022/08/06 06:35:05;;;;;;;3.58;1.70;;;54.80;30.50;;;;;;5001967;28;20202;-88
2022/08/06 06:38:09;;;;;;;5.03;2.08;;;55.80;29.50;;;;;;5006401;28;20247;-87
2022/08/06 06:41:16;;;;;;;4.88;1.83;;;56.80;25.30;;;;;;5014165;28;20229;-87
2022/08/06 06:43:47;;;;;;;4.07;1.70;;;57.60;24.10;;;;;;5000137;28;20182;-87
2022/08/06 06:46:20;;;;;;;3.13;1.60;;;57.10;20.10;;;;;;5007508;28;20545;-88
2022/08/06 06:48:54;;;;;;;3.15;1.83;;;57.80;18.10;;;;;;5014182;28;20206;-87
2022/08/06 06:51:53;;;;;;;4.88;1.90;;;57.00;14.10;;;;;;5004254;28;20293;-90
2022/08/06 06:54:31;;;;;;;4.70;1.90;;;56.90;10.80;;;;;;4998250;28;20674;-87
2022/08/06 06:56:57;;;;;;;4.03;1.67;;;56.60;8.60;;;;;;5007747;28;20264;-89
2022/08/06 06:59:38;;;;;;;5.15;1.90;;;56.70;7.30;;;;;;5001372;28;20691;-86
2022/08/06 07:02:06;;;;;;;5.22;2.17;;;55.90;4.60;;;;;;4998282;28;20197;-87
2022/08/06 07:04:34;;;;;;;3.50;1.92;;;53.80;1.10;;;;;;5010836;28;20174;-88
2022/08/06 07:07:01;;;;;;;2.95;1.63;;;54.40;2.30;;;;;;5001590;28;20230;-88
2022/08/06 07:09:30;;;;;;;4.40;2.00;;;55.60;3.00;;;;;;5008168;28;20612;-87
2022/08/06 07:11:57;;;;;;;4.45;1.67;;;55.90;3.50;;;;;;5004117;28;20709;-87
2022/08/06 07:14:26;;;;;;;4.95;2.08;;;55.30;1.80;;;;;;5002669;28;20204;-87
2022/08/06 07:16:55;;;;;;;4.47;1.95;;;55.90;1.70;;;;;;5004942;28;20179;-89
2022/08/06 07:19:22;;;;;;;4.63;2.20;;;56.30;1.00;;;;;;5004601;28;20686;-88
2022/08/06 07:21:48;;;;;;;4.90;1.80;;;56.70;1.00;;;;;;5010721;28;20186;-87
2022/08/06 07:24:15;;;;;;;3.83;1.80;;;56.50;1.00;;;;;;5008504;28;20277;-87
2022/08/06 07:26:49;;;;;;;4.75;1.80;;;56.00;1.00;;;;;;5014276;28;20346;-87
2022/08/06 07:29:16;;;;;;;6.30;3.65;;;55.20;1.00;;;;;;5017942;28;20209;-87
2022/08/06 07:31:42;;;;;;;3.88;1.50;;;54.60;1.00;;;;;;5010063;28;20178;-85
2022/08/06 07:34:09;;;;;;;6.00;1.63;;;53.90;1.00;;;;;;5007989;28;20197;-87
2022/08/06 07:36:46;;;;;;;8.27;2.53;;;53.30;1.00;;;;;;5010826;28;20193;-88
2022/08/06 07:39:16;;;;;;;3.70;2.10;;;53.00;1.00;;;;;;5015943;28;20571;-86
2022/08/06 07:41:43;;;;;;;6.73;2.10;;;51.60;1.00;;;;;;5017074;28;20186;-87
2022/08/06 07:44:12;;;;;;;4.40;1.50;;;50.70;1.00;;;;;;5010891;28;20491;-86
2022/08/06 07:46:41;;;;;;;2.70;1.17;;;50.20;1.00;;;;;;5002763;28;20810;-87
2022/08/06 07:49:09;;;;;;;2.67;1.33;;;49.60;1.00;;;;;;5000514;28;21000;-86
2022/08/06 07:51:38;;;;;;;3.93;1.20;;;49.20;1.00;;;;;;5005661;28;20449;-85
2022/08/06 07:54:07;;;;;;;2.50;1.10;;;50.00;1.00;;;;;;5009890;28;20771;-86
2022/08/06 07:56:35;;;;;;;4.87;1.13;;;50.60;1.00;;;;;;5000532;28;20433;-86
2022/08/06 07:59:03;;;;;;;2.92;1.27;;;52.30;1.00;;;;;;4998027;28;20692;-87
2022/08/06 08:01:31;;;;;;;2.93;1.13;;;53.30;1.00;;;;;;5009431;28;20205;-86
2022/08/06 08:06:41;;;;;;;2.37;1.10;;;53.40;1.00;;;;;;5004681;28;20194;-86
2022/08/06 08:09:12;;;;;;;2.53;1.08;;;53.10;1.00;;;;;;5001596;28;20679;-87
2022/08/06 08:11:41;;;;;;;2.10;0.90;;;53.50;1.00;;;;;;5008952;28;20190;-87
2022/08/06 08:14:11;;;;;;;6.23;0.97;;;52.00;1.00;;;;;;5008973;28;20174;-86
2022/08/06 08:16:40;;;;;;;5.17;1.17;;;51.90;1.00;;;;;;5009427;28;20209;-86
2022/08/06 08:19:33;;;;;;;3.53;1.10;;;52.00;1.00;;;;;;5007481;28;20192;-87
2022/08/06 08:22:05;;;;;;;2.67;0.90;;;51.70;1.00;;;;;;5004976;28;20855;-86
2022/08/06 08:24:32;;;;;;;3.37;1.17;;;50.80;1.00;;;;;;5014802;28;20473;-86
2022/08/06 08:26:59;;;;;;;4.80;1.23;;;47.00;1.00;;;;;;5010391;28;20469;-85
2022/08/06 08:29:25;;;;;;;3.57;1.10;;;43.80;1.00;;;;;;5006937;28;20898;-84
2022/08/06 08:31:51;;;;;;;2.30;0.83;;;41.30;1.00;;;;;;5011981;28;20986;-86
2022/08/06 08:34:17;;;;;;;2.50;0.73;;;39.20;1.00;;;;;;5006776;28;20440;-85
2022/08/06 08:36:43;;;;;;;4.80;0.97;;;37.60;1.00;;;;;;5013550;28;20206;-85
2022/08/06 08:39:09;;;;;;;8.03;1.20;;;36.40;1.00;;;;;;5011918;28;20469;-85
2022/08/06 08:41:47;;;;;;;7.63;1.03;;;37.50;1.00;;;;;;5007191;28;20182;-84
2022/08/06 08:44:13;;;;;;;4.67;0.90;;;40.20;1.00;;;;;;5009563;28;20463;-86
2022/08/06 08:46:43;;;;;;;1.77;0.70;;;42.50;1.00;;;;;;5002079;28;20437;-86
2022/08/06 08:49:31;;;;;;;5.13;0.90;;;44.40;1.00;;;;;;5008337;28;20608;-86
2022/08/06 08:51:59;;;;;;;4.53;0.80;;;42.30;1.00;;;;;;5009334;28;20434;-83
2022/08/06 08:54:27;;;;;;;1.43;0.90;;;42.00;1.00;;;;;;5011882;28;20488;-85
2022/08/06 08:56:53;;;;;;;2.33;0.83;;;43.30;1.00;;;;;;5005056;28;20427;-87
2022/08/06 08:59:19;;;;;;;1.50;0.90;;;43.80;1.00;;;;;;5010393;28;20485;-87
2022/08/06 09:01:46;;;;;;;3.37;0.77;;;43.50;1.00;;;;;;5010289;28;20448;-86
2022/08/06 09:04:12;;;;;;;2.53;0.80;;;42.50;1.00;;;;;;5007602;28;20445;-87
2022/08/06 09:06:38;;;;;;;1.80;0.77;;;43.80;1.00;;;;;;5006401;28;20492;-87
2022/08/06 09:09:05;;;;;;;2.77;0.90;;;44.50;1.00;;;;;;5009469;28;21001;-86
2022/08/06 09:11:35;;;;;;;1.43;0.73;;;44.70;1.00;;;;;;5007204;28;20725;-86
2022/08/06 09:14:06;;;;;;;2.70;0.70;;;44.70;1.00;;;;;;5009530;28;20433;-86
2022/08/06 09:16:33;;;;;;;2.00;0.60;;;44.70;1.00;;;;;;5001543;28;20445;-86
2022/08/06 09:19:00;;;;;;;1.20;0.63;;;44.70;1.00;;;;;;5006259;28;20445;-86
2022/08/06 09:21:29;;;;;;;3.27;0.70;;;45.10;1.00;;;;;;5014079;28;20823;-86
2022/08/06 09:23:56;;;;;;;2.27;0.80;;;45.20;1.00;;;;;;5002664;28;20446;-88
2022/08/06 09:26:22;;;;;;;1.73;0.70;;;45.30;1.00;;;;;;5005962;28;20433;-86
2022/08/06 09:28:48;;;;;;;1.20;0.57;;;45.40;1.00;;;;;;5008166;28;20474;-85
2022/08/06 09:31:17;;;;;;;3.00;0.60;;;45.70;1.00;;;;;;5007703;28;20571;-85
2022/08/06 09:33:55;;;;;;;2.87;0.60;;;46.00;1.00;;;;;;5003157;28;20434;-87
2022/08/06 09:36:21;;;;;;;3.30;0.80;;;46.00;1.00;;;;;;5005057;28;20434;-87
2022/08/06 09:38:58;;;;;;;1.30;0.50;;;46.40;1.00;;;;;;5006396;28;20466;-88
2022/08/06 09:41:26;;;;;;;2.43;0.80;;;46.50;1.00;;;;;;5006408;28;20921;-88
2022/08/06 09:43:55;;;;;;;3.33;0.60;;;45.50;1.00;;;;;;5005796;28;20434;-89
2022/08/06 09:46:48;;;;;;;1.57;0.60;;;43.10;1.00;;;;;;4998976;28;20988;-88
2022/08/06 09:49:15;;;;;;;1.33;0.60;;;43.30;1.00;;;;;;4997631;28;20492;-89
2022/08/06 09:51:41;;;;;;;1.10;0.50;;;44.30;1.00;;;;;;5002692;28;20526;-89
2022/08/06 09:54:18;;;;;;;1.80;0.60;;;44.20;1.00;;;;;;5009103;28;20451;-87
2022/08/06 09:56:45;;;;;;;5.23;0.73;;;44.20;1.00;;;;;;5010190;28;20433;-88
2022/08/06 09:59:12;;;;;;;2.00;0.50;;;44.30;1.00;;;;;;5010304;28;20455;-88
2022/08/06 10:01:46;;;;;;;2.37;0.70;;;42.90;1.00;;;;;;5013782;28;20443;-87
2022/08/06 10:04:32;;;;;;;4.47;0.73;;;41.30;1.00;;;;;;5007124;28;20498;-87
2022/08/06 10:07:01;;;;;;;1.57;0.73;;;39.90;1.00;;;;;;5009738;28;20427;-87
2022/08/06 10:09:28;;;;;;;2.07;0.57;;;39.20;1.00;;;;;;5007304;28;20458;-88
2022/08/06 10:11:54;;;;;;;2.40;0.60;;;38.00;1.00;;;;;;5009386;28;20977;-87
2022/08/06 10:14:27;;;;;;;2.10;0.60;;;37.20;1.00;;;;;;5007581;28;20438;-87
2022/08/06 10:17:10;;;;;;;3.93;0.73;;;37.10;1.00;;;;;;5006055;28;20436;-87
2022/08/06 10:19:38;;;;;;;3.47;0.77;;;37.50;1.00;;;;;;5008869;28;20489;-89
2022/08/06 10:22:14;;;;;;;1.27;0.67;;;38.50;1.00;;;;;;5003370;28;20441;-88
2022/08/06 10:24:44;;;;;;;1.87;0.50;;;39.30;1.00;;;;;;5008211;28;20451;-88
2022/08/06 10:27:12;;;;;;;1.30;0.60;;;39.70;1.00;;;;;;4997575;28;20512;-89
2022/08/06 10:30:01;;;;;;;1.30;0.77;;;40.00;1.00;;;;;;5004517;28;20529;-88
2022/08/06 10:32:36;;;;;;;1.70;0.80;;;39.90;1.00;;;;;;5000671;28;20458;-88
2022/08/06 10:35:03;;;;;;;0.93;0.53;;;40.20;1.00;;;;;;5004007;28;20472;-88
2022/08/06 10:37:32;;;;;;;1.67;0.60;;;40.40;1.00;;;;;;5003842;28;20430;-88
2022/08/06 10:40:00;;;;;;;1.63;0.60;;;40.50;1.00;;;;;;5003737;28;20474;-89
2022/08/06 10:42:27;;;;;;;1.40;0.57;;;40.00;1.00;;;;;;5003648;28;20442;-89
2022/08/06 10:44:53;;;;;;;1.37;0.60;;;40.10;1.00;;;;;;5002797;28;20528;-89
2022/08/06 10:47:19;;;;;;;2.27;0.90;;;40.40;1.00;;;;;;5006786;28;20516;-88
2022/08/06 10:49:45;;;;;;;2.03;0.60;;;41.20;1.00;;;;;;5006755;28;20560;-88
2022/08/06 10:52:12;;;;;;;1.83;0.80;;;40.80;1.00;;;;;;5005807;28;20467;-88
2022/08/06 10:54:40;;;;;;;1.63;0.60;;;41.40;1.00;;;;;;5006804;28;20453;-88
2022/08/06 10:57:09;;;;;;;3.27;0.83;;;42.10;1.00;;;;;;5005441;28;20434;-88
2022/08/06 10:59:35;;;;;;;3.37;0.80;;;41.30;1.00;;;;;;5007297;28;20457;-88
2022/08/06 11:02:03;;;;;;;1.07;0.57;;;40.00;1.00;;;;;;5011774;28;20899;-88
2022/08/06 11:04:55;;;;;;;3.07;0.70;;;39.60;1.00;;;;;;5004107;28;20215;-88
2022/08/06 11:07:45;;;;;;;3.03;1.10;;;40.00;1.00;;;;;;5004555;28;20434;-87
2022/08/06 11:10:29;;;;;;;1.70;0.70;;;39.80;1.00;;;;;;5001227;28;20512;-88
2022/08/06 11:13:16;;;;;;;1.60;0.63;;;37.80;1.00;;;;;;5009704;28;20445;-87
2022/08/06 11:15:43;;;;;;;2.20;0.80;;;36.50;1.00;;;;;;5005489;28;20481;-87
2022/08/06 11:18:11;;;;;;;1.77;0.50;;;35.40;1.00;;;;;;5006727;28;20433;-86
2022/08/06 11:20:39;;;;;;;3.87;0.70;;;34.80;1.00;;;;;;5001682;28;20477;-86
2022/08/06 11:23:11;;;;;;;1.70;0.70;;;34.60;1.00;;;;;;5009165;28;20519;-85
2022/08/06 11:25:52;;;;;;;2.27;0.70;;;35.70;1.00;;;;;;5001602;28;20433;-86
2022/08/06 11:28:19;;;;;;;2.30;0.60;;;36.80;1.00;;;;;;5007845;28;20507;-86
2022/08/06 11:30:47;;;;;;;2.90;0.60;;;37.80;1.00;;;;;;5002909;28;20468;-86
2022/08/06 11:33:32;;;;;;;1.77;0.70;;;38.60;1.00;;;;;;5005401;28;20490;-88
2022/08/06 11:35:59;;;;;;;2.47;0.70;;;39.00;1.00;;;;;;5006783;28;20434;-88
2022/08/06 11:38:42;;;;;;;2.30;0.70;;;39.50;1.00;;;;;;5003616;28;20441;-88
2022/08/06 11:41:10;;;;;;;1.43;0.60;;;39.60;1.00;;;;;;5003559;28;20463;-88
2022/08/06 11:43:47;;;;;;;1.40;0.60;;;39.50;1.00;;;;;;5007509;28;20789;-89
2022/08/06 11:46:23;;;;;;;4.10;0.80;;;39.00;1.00;;;;;;5008287;28;20442;-87
2022/08/06 11:49:04;;;;;;;2.43;0.83;;;38.80;1.00;;;;;;5003203;28;20465;-88
2022/08/06 11:51:54;;;;;;;1.83;0.60;;;38.30;1.00;;;;;;5006789;28;20516;-87
2022/08/06 11:54:23;;;;;;;2.00;0.80;;;37.20;1.00;;;;;;5001659;28;20433;-88
2022/08/06 11:57:17;;;;;;;6.60;0.77;;;35.90;1.00;;;;;;5007071;28;20433;-88
2022/08/06 11:59:53;;;;;;;2.50;0.70;;;34.90;1.00;;;;;;5016718;28;20457;-88
2022/08/06 12:02:46;;;;;;;2.80;0.80;;;34.20;1.00;;;;;;5007744;28;20970;-89
2022/08/06 12:05:14;;;;;;;1.70;0.73;;;34.10;1.00;;;;;;5005124;28;20509;-87
2022/08/06 12:07:44;;;;;;;2.50;0.80;;;34.20;1.00;;;;;;5012731;28;20552;-89
2022/08/06 12:10:11;;;;;;;1.97;0.60;;;35.00;1.00;;;;;;5009922;28;20535;-88
2022/08/06 12:12:45;;;;;;;1.77;0.67;;;36.10;1.00;;;;;;5013128;28;21003;-87
2022/08/06 12:15:15;;;;;;;1.87;0.80;;;37.00;1.00;;;;;;5012621;28;20433;-88
2022/08/06 12:17:57;;;;;;;2.03;1.33;;;37.40;1.00;;;;;;5012456;28;20447;-88
2022/08/06 12:20:43;;;;;;;1.30;0.60;;;37.20;1.00;;;;;;5006696;28;20465;-87
2022/08/06 12:23:16;;;;;;;2.00;0.70;;;37.00;1.00;;;;;;5013663;28;20799;-87
2022/08/06 12:25:45;;;;;;;2.30;0.70;;;36.10;1.00;;;;;;5012838;28;20433;-87
2022/08/06 12:28:13;;;;;;;1.40;0.67;;;35.10;1.00;;;;;;5012743;28;20461;-87
2022/08/06 12:30:47;;;;;;;2.00;0.80;;;33.90;1.00;;;;;;5012684;28;20950;-87
2022/08/06 12:33:13;;;;;;;1.63;0.80;;;32.90;1.00;;;;;;5013230;28;20444;-87
2022/08/06 12:35:50;;;;;;;1.47;0.60;;;31.90;1.00;;;;;;5010745;28;20430;-86
2022/08/06 12:38:16;;;;;;;3.57;0.80;;;31.30;1.00;;;;;;5001590;28;20205;-87
2022/08/06 12:41:01;;;;;;;1.53;0.70;;;30.60;1.00;;;;;;5008371;28;20529;-88
2022/08/06 12:43:31;;;;;;;2.13;0.70;;;30.20;1.00;;;;;;5007151;28;20438;-86
2022/08/06 12:45:59;;;;;;;1.73;0.70;;;30.20;1.00;;;;;;5008100;28;20501;-87
2022/08/06 12:48:25;;;;;;;2.33;0.97;;;30.20;1.00;;;;;;5010621;28;20974;-87
2022/08/06 12:51:08;;;;;;;1.50;0.70;;;30.30;1.00;;;;;;5013660;28;20460;-87
2022/08/06 12:53:42;;;;;;;2.17;0.70;;;30.40;1.00;;;;;;5003515;28;20180;-87
2022/08/06 12:56:08;;;;;;;1.57;0.70;;;31.40;1.00;;;;;;5004831;28;20438;-87
2022/08/06 12:58:35;;;;;;;3.00;0.90;;;32.80;1.00;;;;;;5011217;28;20552;-88
2022/08/06 13:01:02;;;;;;;3.13;0.70;;;34.10;1.00;;;;;;5015594;28;20241;-89
2022/08/06 13:03:30;;;;;;;4.70;0.77;;;35.00;1.00;;;;;;5010471;28;20451;-88
2022/08/06 13:06:04;;;;;;;2.23;0.80;;;35.70;1.00;;;;;;5010669;28;20956;-88
2022/08/06 13:08:30;;;;;;;1.13;0.70;;;36.10;1.00;;;;;;5007024;28;20481;-88
2022/08/06 13:10:56;;;;;;;4.90;0.80;;;36.40;1.00;;;;;;5009918;28;20456;-87
2022/08/06 13:13:37;;;;;;;3.97;0.70;;;36.30;1.00;;;;;;5010553;28;20198;-86
2022/08/06 13:16:08;;;;;;;2.07;0.80;;;35.70;1.00;;;;;;5004310;28;20433;-88
2022/08/06 13:18:34;;;;;;;1.57;0.53;;;35.00;1.00;;;;;;5006958;28;20429;-87